Time;durP1;ratioP1;P1;durP2;ratioP2;P2;SDS_P1;SDS_P2;PMS_P1;PMS_P2;Temp;Humidity;BMP_temperature;BMP_pressure;BME280_temperature;BME280_humidity;BME280_pressure;Samples;Min_cycle;Max_cycle;Signal;HPM_P1;HPM_P2
2022/10/15 00:02:25;;;;;;;67.93;35.63;;;;;;;;;;5015567;28;20045;-66
2022/10/15 00:04:51;;;;;;;70.13;36.60;;;;;;;;;;5015765;28;20115;-67
2022/10/15 00:07:17;;;;;;;61.03;34.25;;;;;;;;;;5015900;28;20041;-65
2022/10/15 00:09:43;;;;;;;76.38;38.15;;;;;;;;;;5032888;28;20041;-66
2022/10/15 00:12:09;;;;;;;74.20;36.20;;;;;;;;;;5015883;28;20042;-66
2022/10/15 00:14:35;;;;;;;65.45;35.38;;;;;;;;;;5033309;28;20124;-66
2022/10/15 00:17:01;;;;;;;68.78;37.15;;;;;;;;;;5015416;28;20076;-66
2022/10/15 00:19:29;;;;;;;72.05;38.50;;;;;;;;;;5033228;28;20045;-66
2022/10/15 00:21:55;;;;;;;72.60;36.92;;;;;;;;;;5032871;28;20087;-66
2022/10/15 00:24:21;;;;;;;74.53;36.53;;;;;;;;;;5031914;28;20053;-66
2022/10/15 00:26:47;;;;;;;71.72;36.45;;;;;;;;;;5015157;28;20139;-66
2022/10/15 00:29:13;;;;;;;68.53;36.53;;;;;;;;;;5015186;28;20481;-66
2022/10/15 00:31:39;;;;;;;71.35;37.22;;;;;;;;;;5015318;28;20107;-66
2022/10/15 00:34:05;;;;;;;68.03;36.78;;;;;;;;;;5032947;28;20503;-66
2022/10/15 00:36:35;;;;;;;68.95;36.13;;;;;;;;;;5015090;28;20044;-66
2022/10/15 00:39:01;;;;;;;70.68;37.05;;;;;;;;;;4998811;28;20046;-66
2022/10/15 00:41:29;;;;;;;68.20;36.78;;;;;;;;;;5015097;28;20052;-66
2022/10/15 00:43:57;;;;;;;66.43;34.72;;;;;;;;;;5015175;28;20125;-66
2022/10/15 00:46:23;;;;;;;64.57;35.90;;;;;;;;;;5033001;28;20401;-65
2022/10/15 00:48:50;;;;;;;70.35;34.42;;;;;;;;;;5032791;28;20045;-65
2022/10/15 00:51:18;;;;;;;64.30;34.70;;;;;;;;;;5032917;28;20033;-66
2022/10/15 00:53:44;;;;;;;66.03;34.45;;;;;;;;;;5034701;28;20103;-65
2022/10/15 00:56:11;;;;;;;59.10;32.15;;;;;;;;;;5018913;28;20048;-65
2022/10/15 00:58:38;;;;;;;69.50;33.00;;;;;;;;;;5018921;28;20494;-66
2022/10/15 01:01:04;;;;;;;59.90;32.38;;;;;;;;;;5018819;28;20045;-65
2022/10/15 01:03:30;;;;;;;70.50;35.22;;;;;;;;;;5018777;28;20128;-65
2022/10/15 01:05:56;;;;;;;65.05;32.72;;;;;;;;;;5036360;28;20037;-65
2022/10/15 01:08:22;;;;;;;65.78;33.88;;;;;;;;;;5018711;28;20069;-66
2022/10/15 01:10:55;;;;;;;62.95;32.58;;;;;;;;;;5018595;28;20041;-65
2022/10/15 01:13:33;;;;;;;63.28;32.22;;;;;;;;;;5018776;28;20041;-65
2022/10/15 01:16:02;;;;;;;59.08;31.10;;;;;;;;;;5018471;28;20037;-66
2022/10/15 01:18:33;;;;;;;63.58;33.90;;;;;;;;;;5018474;28;20045;-66
2022/10/15 01:20:59;;;;;;;66.55;33.22;;;;;;;;;;5036139;28;20060;-65
2022/10/15 01:23:31;;;;;;;69.82;34.13;;;;;;;;;;5035941;28;20083;-66
2022/10/15 01:26:23;;;;;;;63.15;32.33;;;;;;;;;;5036114;28;20098;-65
2022/10/15 01:28:52;;;;;;;58.35;30.77;;;;;;;;;;5036071;28;20516;-66
2022/10/15 01:31:28;;;;;;;61.15;32.95;;;13.20;99.90;;;;;;5018161;28;20481;-66
2022/10/15 01:33:57;;;;;;;66.07;33.35;;;;;;;;;;5051270;28;20048;-65
2022/10/15 01:36:29;;;;;;;64.95;31.15;;;;;;;;;;5018477;28;20434;-65
2022/10/15 01:39:22;;;;;;;67.07;34.85;;;13.30;99.90;;;;;;5001845;28;20077;-66
2022/10/15 01:41:59;;;;;;;68.53;34.38;;;;;;;;;;5026008;28;20508;-65
2022/10/15 01:44:36;;;;;;;60.80;32.15;;;;;;;;;;5018289;28;20053;-65
2022/10/15 01:47:11;;;;;;;63.72;33.30;;;;;;;;;;5035724;28;20072;-65
2022/10/15 01:49:40;;;;;;;57.70;31.88;;;;;;;;;;5035491;28;20050;-65
2022/10/15 01:52:09;;;;;;;64.25;33.63;;;;;;;;;;5035567;28;20041;-65
2022/10/15 01:54:36;;;;;;;54.13;30.92;;;;;;;;;;5018096;28;20084;-65
2022/10/15 01:57:02;;;;;;;56.65;30.58;;;;;;;;;;5035572;28;20138;-65
2022/10/15 01:59:31;;;;;;;58.65;28.45;;;;;;;;;;5017842;28;20053;-65
2022/10/15 02:01:57;;;;;;;51.22;28.13;;;;;;;;;;5035559;28;20061;-66
2022/10/15 02:04:30;;;;;;;52.78;29.20;;;;;;;;;;5017074;28;20164;-65
2022/10/15 02:07:02;;;;;;;53.63;28.45;;;;;;;;;;5035365;28;20397;-66
2022/10/15 02:09:32;;;;;;;53.08;26.25;;;;;;;;;;5017355;28;20081;-65
2022/10/15 02:12:07;;;;;;;50.00;24.85;;;;;;;;;;5001186;28;20056;-69
2022/10/15 02:14:45;;;;;;;46.88;25.73;;;;;;;;;;5035336;28;20398;-69
2022/10/15 02:17:11;;;;;;;47.17;24.83;;;;;;;;;;5017606;28;20073;-69
2022/10/15 02:19:43;;;;;;;43.00;24.42;;;;;;;;;;5017257;28;20042;-69
2022/10/15 02:22:23;;;;;;;40.38;22.67;;;;;;;;;;5017165;28;20045;-69
2022/10/15 02:25:03;;;;;;;44.35;23.17;;;;;;;;;;5017422;28;20045;-69
2022/10/15 02:27:30;;;;;;;40.80;22.83;;;;;;;;;;5017206;28;20042;-69
2022/10/15 02:29:57;;;;;;;42.22;22.13;;;;;;;;;;5035157;28;20389;-69
2022/10/15 02:32:24;;;;;;;45.95;23.85;;;;;;;;;;5017141;28;20486;-69
2022/10/15 02:34:51;;;;;;;38.40;22.38;;;;;;;;;;5000808;28;20037;-69
2022/10/15 02:37:19;;;;;;;39.83;22.70;;;;;;;;;;5034792;28;20034;-69
2022/10/15 02:39:45;;;;;;;35.70;21.38;;;;;;;;;;5034791;28;20465;-69
2022/10/15 02:42:11;;;;;;;45.97;22.77;;;;;;;;;;5016830;28;20045;-69
2022/10/15 02:44:37;;;;;;;41.58;24.67;;;;;;;;;;5016858;28;20085;-69
2022/10/15 02:47:03;;;;;;;43.47;24.40;;;;;;;;;;5034758;28;20084;-69
2022/10/15 02:49:30;;;;;;;45.83;24.30;;;;;;;;;;5016729;28;20452;-69
2022/10/15 02:51:56;;;;;;;46.92;24.33;;;;;;;;;;5034539;28;20041;-69
2022/10/15 02:54:22;;;;;;;50.33;26.17;;;;;;;;;;5016992;28;20037;-69
2022/10/15 02:56:48;;;;;;;53.42;26.20;;;;;;;;;;5016713;28;20065;-69
2022/10/15 02:59:14;;;;;;;51.35;25.98;;;;;;;;;;5034665;28;20042;-69
2022/10/15 03:01:40;;;;;;;55.17;26.50;;;;;;;;;;5016868;28;20103;-69
2022/10/15 03:04:06;;;;;;;57.88;28.02;;;;;;;;;;5016995;28;20049;-69
2022/10/15 03:06:32;;;;;;;52.80;27.02;;;;;;;;;;5034277;28;20041;-69
2022/10/15 03:08:58;;;;;;;53.67;29.52;;;;;;;;;;5016496;28;20041;-69
2022/10/15 03:11:24;;;;;;;54.20;28.20;;;;;;;;;;5016383;28;20073;-69
2022/10/15 03:13:50;;;;;;;61.10;30.10;;;;;;;;;;5034199;28;20045;-69
2022/10/15 03:16:16;;;;;;;65.50;30.27;;;;;;;;;;5034013;28;20561;-69
2022/10/15 03:18:42;;;;;;;59.65;30.95;;;;;;;;;;5016205;28;20323;-69
2022/10/15 03:21:09;;;;;;;63.58;31.30;;;;;;;;;;5033978;28;20044;-69
2022/10/15 03:23:35;;;;;;;67.15;32.70;;;;;;;;;;5033781;28;20103;-69
2022/10/15 03:26:01;;;;;;;70.07;33.40;;;;;;;;;;5016394;28;20404;-69
2022/10/15 03:28:27;;;;;;;66.47;32.05;;;;;;;;;;5016065;28;20505;-69
2022/10/15 03:30:53;;;;;;;74.25;34.17;;;;;;;;;;5033708;28;20087;-69
2022/10/15 03:33:19;;;;;;;66.53;32.95;;;;;;;;;;5016210;28;20041;-69
2022/10/15 03:35:45;;;;;;;64.70;32.45;;;;;;;;;;5016192;28;20042;-69
2022/10/15 03:38:11;;;;;;;61.50;31.15;;;;;;;;;;5015908;28;20398;-69
2022/10/15 03:40:37;;;;;;;69.65;32.35;;;;;;;;;;5015796;28;20049;-69
2022/10/15 03:43:04;;;;;;;66.13;32.30;;;;;;;;;;5015742;28;20063;-69
2022/10/15 03:45:30;;;;;;;63.22;31.55;;;;;;;;;;4999554;28;20041;-70
2022/10/15 03:47:56;;;;;;;64.63;31.30;;;;;;;;;;5016110;28;20460;-69
2022/10/15 03:50:22;;;;;;;69.30;33.95;;;;;;;;;;5015989;28;20041;-70
2022/10/15 03:52:48;;;;;;;69.75;32.45;;;;;;;;;;5033582;28;20041;-70
2022/10/15 03:55:14;;;;;;;61.08;30.20;;;;;;;;;;5015722;28;20478;-69
2022/10/15 03:57:41;;;;;;;65.28;32.13;;;;;;;;;;5033509;28;20382;-69
2022/10/15 04:00:08;;;;;;;62.70;31.88;;;;;;;;;;5033398;28;20037;-70
2022/10/15 04:02:34;;;;;;;71.18;32.58;;;;;;;;;;5015881;28;20411;-69
2022/10/15 04:05:00;;;;;;;63.50;32.65;;;;;;;;;;5033755;28;20084;-69
2022/10/15 04:07:26;;;;;;;66.50;31.15;;;;;;;;;;5033150;28;20034;-69
2022/10/15 04:09:52;;;;;;;61.17;30.88;;;;;;;;;;5032942;28;20053;-69
2022/10/15 04:12:18;;;;;;;57.03;30.45;;;;;;;;;;5033276;28;20037;-70
2022/10/15 04:14:44;;;;;;;66.78;31.95;;;;;;;;;;5032924;28;20033;-70
2022/10/15 04:17:10;;;;;;;70.32;32.92;;;;;;;;;;5033049;28;20058;-70
2022/10/15 04:19:36;;;;;;;64.80;31.20;;;;;;;;;;5015223;28;20054;-70
2022/10/15 04:22:03;;;;;;;66.53;33.08;;;;;;;;;;5015014;28;20049;-69
2022/10/15 04:24:29;;;;;;;58.03;29.92;;;;;;;;;;5015273;28;20052;-69
2022/10/15 04:26:55;;;;;;;70.18;31.70;;;;;;;;;;5015489;28;20045;-69
2022/10/15 04:29:21;;;;;;;66.90;32.55;;;;;;;;;;5036072;28;20046;-69
2022/10/15 04:31:47;;;;;;;70.65;34.28;;;;;;;;;;5037152;28;20088;-69
2022/10/15 04:34:13;;;;;;;70.72;34.22;;;;;;;;;;5019286;28;20045;-70
2022/10/15 04:36:39;;;;;;;61.85;31.40;;;;;;;;;;5036977;28;20468;-69
2022/10/15 04:39:06;;;;;;;66.55;32.95;;;;;;;;;;5019153;28;20103;-69
2022/10/15 04:41:32;;;;;;;71.10;34.88;;;;;;;;;;5019217;28;20125;-70
2022/10/15 04:43:58;;;;;;;78.60;32.92;;;;;;;;;;5019440;28;20056;-70
2022/10/15 04:46:24;;;;;;;73.85;35.15;;;;;;;;;;5019155;28;20041;-69
2022/10/15 04:48:51;;;;;;;70.28;33.47;;;;;;;;;;5036887;28;20041;-70
2022/10/15 04:51:19;;;;;;;71.60;32.90;;;;;;;;;;5036741;28;20063;-70
2022/10/15 04:53:45;;;;;;;77.60;34.05;;;;;;;;;;5036852;28;20134;-70
2022/10/15 04:56:14;;;;;;;66.10;34.05;;;;;;;;;;5036862;28;20045;-70
2022/10/15 04:58:41;;;;;;;70.88;35.05;;;;;;;;;;5018865;28;20095;-69
2022/10/15 05:01:10;;;;;;;76.32;35.45;;;;;;;;;;5018982;28;20111;-69
2022/10/15 05:03:37;;;;;;;83.00;36.05;;;;;;;;;;5036632;28;20456;-69
2022/10/15 05:06:04;;;;;;;76.88;36.53;;;;;;;;;;5036582;28;20046;-69
2022/10/15 05:08:31;;;;;;;77.57;36.40;;;;;;;;;;5018590;28;20125;-69
2022/10/15 05:11:04;;;;;;;81.72;38.47;;;;;;;;;;5018932;28;20049;-69
2022/10/15 05:13:30;;;;;;;72.55;35.85;;;;;;;;;;5018565;28;20441;-69
2022/10/15 05:15:57;;;;;;;71.30;35.90;;;;;;;;;;5018660;28;20481;-69
2022/10/15 05:18:23;;;;;;;69.35;35.25;;;;;;;;;;5036137;28;20139;-69
2022/10/15 05:20:49;;;;;;;80.55;35.72;;;;;;;;;;5018516;28;20124;-70
2022/10/15 05:23:15;;;;;;;70.70;34.15;;;;;;;;;;5036101;28;20053;-69
2022/10/15 05:25:41;;;;;;;69.22;33.78;;;;;;;;;;5036301;28;20037;-69
2022/10/15 05:28:07;;;;;;;72.45;35.15;;;;;;;;;;5018624;28;20107;-70
2022/10/15 05:30:34;;;;;;;67.35;33.70;;;;;;;;;;5018302;28;20120;-69
2022/10/15 05:33:00;;;;;;;72.82;35.55;;;;;;;;;;5035962;28;20460;-69
2022/10/15 05:35:26;;;;;;;73.63;34.50;;;;;;;;;;5035924;28;20386;-69
2022/10/15 05:37:52;;;;;;;69.85;35.38;;;;;;;;;;5035982;28;20033;-69
2022/10/15 05:40:18;;;;;;;74.38;35.08;;;;;;;;;;5035691;28;20037;-69
2022/10/15 05:42:44;;;;;;;72.60;35.90;;;;;;;;;;5035855;28;20041;-69
2022/10/15 05:45:10;;;;;;;67.13;34.80;;;;;;;;;;5035692;28;20374;-69
2022/10/15 05:47:36;;;;;;;69.78;35.83;;;;;;;;;;5035773;28;20465;-69
2022/10/15 05:50:02;;;;;;;76.68;36.45;;;;;;;;;;5017695;28;20500;-70
2022/10/15 05:52:28;;;;;;;72.72;36.13;;;;;;;;;;5035590;28;20121;-69
2022/10/15 05:54:54;;;;;;;69.70;36.42;;;;;;;;;;5035406;28;20049;-69
2022/10/15 05:57:21;;;;;;;76.00;36.13;;;;;;;;;;5017804;28;20477;-69
2022/10/15 05:59:47;;;;;;;77.57;36.78;;;;;;;;;;5017797;28;20132;-69
2022/10/15 06:02:14;;;;;;;71.60;36.15;;;;;;;;;;5017563;28;20049;-70
2022/10/15 06:04:41;;;;;;;79.68;37.50;;;;;;;;;;5001293;28;20537;-69
2022/10/15 06:07:07;;;;;;;73.55;37.47;;;;;;;;;;5017529;28;20045;-70
2022/10/15 06:09:33;;;;;;;71.18;36.30;;;;;;;;;;5035241;28;20084;-69
2022/10/15 06:12:00;;;;;;;73.05;36.70;;;;;;;;;;5035295;28;20374;-69
2022/10/15 06:14:26;;;;;;;68.47;37.42;;;;;;;;;;5035182;28;20047;-69
2022/10/15 06:16:53;;;;;;;66.68;35.00;;;;;;;;;;5017339;28;20049;-69
2022/10/15 06:19:20;;;;;;;74.97;34.65;;;;;;;;;;5017326;28;20077;-70
2022/10/15 06:21:46;;;;;;;83.30;37.45;;;;;;;;;;5017584;28;20077;-70
2022/10/15 06:24:12;;;;;;;80.28;37.55;;;;;;;;;;5034760;28;20589;-69
2022/10/15 06:26:39;;;;;;;71.18;37.58;;;;;;;;;;5034955;28;20086;-69
2022/10/15 06:29:05;;;;;;;81.00;38.95;;;;;;;;;;5017183;28;20049;-69
2022/10/15 06:31:31;;;;;;;71.22;37.45;;;;;;;;;;5017385;28;20120;-69
2022/10/15 06:33:57;;;;;;;73.57;37.47;;;;;;;;;;5017380;28;20042;-65
2022/10/15 06:36:24;;;;;;;78.47;38.45;;;;;;;;;;5000611;28;20034;-66
2022/10/15 06:38:50;;;;;;;79.68;41.33;;;;;;;;;;5034604;28;20046;-66
2022/10/15 06:41:17;;;;;;;67.22;35.63;;;;;;;;;;5017243;28;20052;-65
2022/10/15 06:43:44;;;;;;;77.50;38.22;;;;;;;;;;5017007;28;20183;-66
2022/10/15 06:46:11;;;;;;;74.90;34.92;;;;;;;;;;5034760;28;20528;-65
2022/10/15 06:48:37;;;;;;;77.22;38.70;;;;;;;;;;5034935;28;20095;-65
2022/10/15 06:51:03;;;;;;;76.60;38.22;;;;;;;;;;5034017;28;20038;-65
2022/10/15 06:53:30;;;;;;;70.82;36.30;;;;;;;;;;5016653;28;20048;-65
2022/10/15 06:55:57;;;;;;;72.35;37.95;;;;;;;;;;5034504;28;20113;-65
2022/10/15 06:58:23;;;;;;;69.25;36.92;;;;;;;;;;5016667;28;20052;-65
2022/10/15 07:00:49;;;;;;;74.05;38.47;;;;;;;;;;5033561;28;20072;-65
2022/10/15 07:03:15;;;;;;;71.22;38.10;;;;;;;;;;5034399;28;20087;-66
2022/10/15 07:05:41;;;;;;;69.53;36.67;;;;;;;;;;5016474;28;20045;-66
2022/10/15 07:08:08;;;;;;;67.25;37.92;;;;;;;;;;5016657;28;20053;-66
2022/10/15 07:10:34;;;;;;;76.78;38.08;;;;;;;;;;5016639;28;20057;-66
2022/10/15 07:13:00;;;;;;;70.18;37.75;;;;;;;;;;5033335;28;20049;-66
2022/10/15 07:15:27;;;;;;;75.72;39.08;;;;;;;;;;5034323;28;20034;-66
2022/10/15 07:17:55;;;;;;;77.28;38.53;;;;;;;;;;5016614;28;20120;-66
2022/10/15 07:20:22;;;;;;;83.78;41.35;;;;;;;;;;5016244;28;20060;-69
2022/10/15 07:22:48;;;;;;;80.38;39.47;;;;;;;;;;5033792;28;20065;-69
2022/10/15 07:25:14;;;;;;;85.63;40.25;;;;;;;;;;5033817;28;20117;-69
2022/10/15 07:27:41;;;;;;;78.88;39.88;;;;;;;;;;5033705;28;20080;-69
2022/10/15 07:30:07;;;;;;;76.28;39.90;;;;;;;;;;5033670;28;20050;-69
2022/10/15 07:32:33;;;;;;;80.50;41.22;;;;;;;;;;4999729;28;20076;-69
2022/10/15 07:34:59;;;;;;;79.97;39.92;;;;;;;;;;5016150;28;20029;-70
2022/10/15 07:37:25;;;;;;;87.50;42.08;;;;;;;;;;5016042;28;20052;-70
2022/10/15 07:39:52;;;;;;;81.28;39.92;;;;;;;;;;5033453;28;20520;-69
2022/10/15 07:42:19;;;;;;;88.00;41.33;;;;;;;;;;5033503;28;20045;-69
2022/10/15 07:44:45;;;;;;;83.43;41.15;;;;;;;;;;5033638;28;20041;-69
2022/10/15 07:47:11;;;;;;;96.22;42.38;;;;;;;;;;5015892;28;20064;-69
2022/10/15 07:49:37;;;;;;;96.30;41.75;;;;;;;;;;5015598;28;20041;-69
2022/10/15 07:52:03;;;;;;;89.00;39.38;;;;;;;;;;5015830;28;20037;-69
2022/10/15 07:54:32;;;;;;;94.13;41.08;;;;;;;;;;5033358;28;20041;-69
2022/10/15 07:56:58;;;;;;;92.35;39.67;;;;;;;;;;5033181;28;20038;-69
2022/10/15 07:59:24;;;;;;;89.32;39.08;;;;;;;;;;5033254;28;20114;-69
2022/10/15 08:01:50;;;;;;;97.60;40.72;;;;;;;;;;5015712;28;20041;-69
2022/10/15 08:04:19;;;;;;;87.05;39.03;;;;;;;;;;5032628;28;20041;-70
2022/10/15 08:06:45;;;;;;;75.50;34.13;;;;;;;;;;5033257;28;20397;-70
2022/10/15 08:09:11;;;;;;;82.68;34.40;;;;;;;;;;5032868;28;20045;-69
2022/10/15 08:11:37;;;;;;;78.05;31.42;;;;;;;;;;5015381;28;20046;-69
2022/10/15 08:14:03;;;;;;;75.30;30.00;;;;;;;;;;5032968;28;20044;-69
2022/10/15 08:16:30;;;;;;;74.57;27.90;;;;;;;;;;5033355;28;20120;-69
2022/10/15 08:18:57;;;;;;;73.90;29.30;;;;;;;;;;5015429;28;20050;-69
2022/10/15 08:21:23;;;;;;;70.93;28.60;;;;;;;;;;5033167;28;20046;-69
2022/10/15 08:23:50;;;;;;;75.47;28.80;;;;;;;;;;5032868;28;20071;-69
2022/10/15 08:26:16;;;;;;;71.43;29.60;;;;;;;;;;5015597;28;20049;-70
2022/10/15 08:28:42;;;;;;;73.60;30.17;;;;;;;;;;5032992;28;20038;-70
2022/10/15 08:31:08;;;;;;;71.63;30.85;;;;;;;;;;5015491;28;20117;-69
2022/10/15 08:33:34;;;;;;;86.22;34.20;;;;;;;;;;5015355;28;20046;-69
2022/10/15 08:36:01;;;;;;;86.10;34.17;;;;;;;;;;5015338;28;20052;-69
2022/10/15 08:38:27;;;;;;;83.35;35.17;;;;;;;;;;5032718;28;20474;-69
2022/10/15 08:40:55;;;;;;;84.95;35.80;;;;;;;;;;5032725;28;20445;-69
2022/10/15 08:43:28;;;;;;;74.72;33.30;;;;;;;;;;5032819;28;20038;-69
2022/10/15 08:45:59;;;;;;;81.22;34.47;;;;;;;;;;5032914;28;20053;-66
2022/10/15 08:48:30;;;;;;;87.68;36.22;;;;;;;;;;5015023;28;20045;-66
2022/10/15 08:51:06;;;;;;;88.57;34.95;;;;;;;;;;5032709;28;20075;-66
2022/10/15 08:53:37;;;;;;;82.78;35.30;;;;;;;;;;5015327;28;20049;-66
2022/10/15 08:56:05;;;;;;;82.18;34.58;;;;;;;;;;5015072;28;20473;-66
2022/10/15 08:58:31;;;;;;;69.30;31.55;;;;;;;;;;5032813;28;20107;-66
2022/10/15 09:01:35;;;;;;;65.60;30.48;;;13.30;99.90;;;;;;5032673;28;20405;-66
2022/10/15 09:04:07;;;;;;;76.13;30.27;;;;;;;;;;5014972;28;20052;-66
2022/10/15 09:06:35;;;;;;;65.43;30.73;;;;;;;;;;5032694;28;20131;-66
2022/10/15 09:09:07;;;;;;;67.32;31.45;;;;;;;;;;5014758;28;20060;-66
2022/10/15 09:11:33;;;;;;;;;;;13.40;99.90;;;;;;5015511;28;20489;-66
2022/10/15 09:13:59;;;;;;;69.82;32.50;;;;;;;;;;5015972;28;19924;-66
2022/10/15 09:16:27;;;;;;;71.53;33.08;;;;;;;;;;5036481;28;20047;-66
2022/10/15 09:18:53;;;;;;;69.68;32.45;;;;;;;;;;5018556;28;20049;-66
2022/10/15 09:21:21;;;;;;;71.88;34.03;;;;;;;;;;5036174;28;20045;-66
2022/10/15 09:23:47;;;;;;;73.95;34.72;;;;;;;;;;5018302;28;20068;-66
2022/10/15 09:26:21;;;;;;;71.03;34.30;;;;;;;;;;5035986;28;20042;-66
2022/10/15 09:28:51;;;;;;;66.22;31.75;;;;;;;;;;5036024;28;20052;-66
2022/10/15 09:31:19;;;;;;;64.53;31.48;;;;;;;;;;5036199;28;20041;-66
2022/10/15 09:33:52;;;;;;;61.13;31.77;;;;;;;;;;5036219;28;20117;-66
2022/10/15 09:36:30;;;;;;;65.40;32.33;;;;;;;;;;5018169;28;20041;-66
2022/10/15 09:39:04;;;;;;;67.75;34.55;;;;;;;;;;5001914;28;20049;-66
2022/10/15 09:41:50;;;;;;;65.10;32.53;;;;;;;;;;5035774;28;20045;-66
2022/10/15 09:44:17;;;;;;;59.92;31.13;;;;;;;;;;5001777;28;20053;-66
2022/10/15 09:46:47;;;;;;;60.35;31.17;;;;;;;;;;5017962;28;20052;-67
2022/10/15 09:49:26;;;;;;;64.22;30.60;;;;;;;;;;5035626;28;20041;-66
2022/10/15 09:52:11;;;;;;;55.33;27.27;;;;;;;;;;5018173;28;20045;-66
2022/10/15 09:54:56;;;;;;;57.53;26.73;;;;;;;;;;5018115;28;20065;-66
2022/10/15 09:57:23;;;;;;;57.42;25.65;;;;;;;;;;5035685;28;20088;-66
2022/10/15 09:59:56;;;;;;;61.20;26.88;;;;;;;;;;5017823;28;20045;-66
2022/10/15 10:02:23;;;;;;;51.45;25.55;;;;;;;;;;5017735;28;20038;-66
2022/10/15 10:04:50;;;;;;;59.47;26.30;;;;;;;;;;5017973;28;20045;-66
2022/10/15 10:07:34;;;;;;;49.42;24.83;;;;;;;;;;5035444;28;20051;-66
2022/10/15 10:10:05;;;;;;;52.67;23.63;;;;;;;;;;5017491;28;20042;-66
2022/10/15 10:12:35;;;;;;;54.08;23.95;;;;;;;;;;5035459;28;20359;-66
2022/10/15 10:15:08;;;;;;;49.83;25.05;;;;;;;;;;5035086;28;20053;-66
2022/10/15 10:17:34;;;;;;;46.63;22.38;;;;;;;;;;5017660;28;20107;-66
2022/10/15 10:20:04;;;;;;;46.38;21.02;;;;;;;;;;5017497;28;20052;-66
2022/10/15 10:22:30;;;;;;;51.45;21.17;;;;;;;;;;5013870;28;20085;-66
2022/10/15 10:24:56;;;;;;;47.13;20.75;;;;;;;;;;5013743;28;20065;-66
2022/10/15 10:27:23;;;;;;;49.97;20.95;;;;;;;;;;5013210;28;20121;-66
2022/10/15 10:29:53;;;;;;;46.88;21.23;;;;;;;;;;5013931;28;20042;-66
2022/10/15 10:32:21;;;;;;;48.03;21.95;;;;;;;;;;5013816;28;20451;-66
2022/10/15 10:34:47;;;;;;;49.25;22.25;;;;;;;;;;5014137;28;20044;-66
2022/10/15 10:37:13;;;;;;;51.20;22.38;;;;;;;;;;5015044;28;20038;-66
2022/10/15 10:39:39;;;;;;;44.78;21.25;;;;;;;;;;5013947;28;20042;-66
2022/10/15 10:42:07;;;;;;;46.78;22.00;;;;;;;;;;5015079;28;20052;-66
2022/10/15 10:44:37;;;;;;;45.10;21.45;;;;;;;;;;5013623;28;20100;-66
2022/10/15 10:47:03;;;;;;;40.90;20.85;;;;;;;;;;5014810;28;20042;-66
2022/10/15 10:49:31;;;;;;;42.40;20.50;;;;;;;;;;5013556;28;20402;-66
2022/10/15 10:51:57;;;;;;;40.00;20.77;;;;;;;;;;5013518;28;20103;-66
2022/10/15 10:54:24;;;;;;;44.30;20.45;;;;;;;;;;5013485;28;20120;-66
2022/10/15 10:56:52;;;;;;;40.75;19.10;;;;;;;;;;5014768;28;20042;-66
2022/10/15 10:59:33;;;;;;;37.85;19.23;;;;;;;;;;5014749;28;20112;-66
2022/10/15 11:01:59;;;;;;;37.65;19.40;;;;;;;;;;5013687;28;20057;-66
2022/10/15 11:04:33;;;;;;;38.13;18.45;;;;;;;;;;5013347;28;20450;-66
2022/10/15 11:07:01;;;;;;;36.47;19.08;;;;;;;;;;5013271;28;20136;-70
2022/10/15 11:09:30;;;;;;;35.85;18.15;;;;;;;;;;5012895;28;20042;-70
2022/10/15 11:12:26;;;;;;;37.35;17.85;;;;;;;;;;5013121;28;20041;-70
2022/10/15 11:15:26;;;;;;;39.13;18.75;;;14.40;99.90;;;;;;4997952;28;20422;-70
2022/10/15 11:18:03;;;;;;;35.40;17.90;;;;;;;;;;5014547;28;20041;-70
2022/10/15 11:20:48;;;;;;;33.10;17.48;;;;;;;;;;5014288;28;20041;-70
2022/10/15 11:23:20;;;;;;;32.95;17.33;;;;;;;;;;5024751;28;20409;-70
2022/10/15 11:25:51;;;;;;;37.08;16.90;;;;;;;;;;5000126;28;20041;-70
2022/10/15 11:28:35;;;;;;;31.92;16.98;;;;;;;;;;5033945;28;20063;-70
2022/10/15 11:31:15;;;;;;;27.98;16.33;;;;;;;;;;5033999;28;20042;-70
2022/10/15 11:33:54;;;;;;;29.73;16.17;;;;;;;;;;5016008;28;20045;-70
2022/10/15 11:36:30;;;;;;;28.60;14.98;;;;;;;;;;5015967;28;20099;-70
2022/10/15 11:39:06;;;;;;;26.80;15.20;;;;;;;;;;5016295;28;20049;-70
2022/10/15 11:41:35;;;;;;;24.58;14.32;;;;;;;;;;5016472;28;20049;-70
2022/10/15 11:44:16;;;;;;;25.15;14.57;;;;;;;;;;5015790;28;20417;-70
2022/10/15 11:46:49;;;;;;;23.67;15.10;;;;;;;;;;5015823;28;20130;-70
2022/10/15 11:49:24;;;;;;;22.15;13.65;;;;;;;;;;5016195;28;20081;-70
2022/10/15 11:52:05;;;;;;;24.17;13.98;;;;;;;;;;5015791;28;20041;-70
2022/10/15 11:54:55;;;;;;;23.48;14.80;;;;;;;;;;4999688;28;20042;-69
2022/10/15 11:57:22;;;;;;;23.85;14.38;;;;;;;;;;5015766;28;20056;-70
2022/10/15 11:59:58;;;;;;;25.20;14.77;;;;;;;;;;5016121;28;20057;-70
2022/10/15 12:02:29;;;;;;;25.27;15.40;;;;;;;;;;5033392;28;20041;-70
2022/10/15 12:05:00;;;;;;;25.35;13.57;;;;;;;;;;5015666;28;20124;-70
2022/10/15 12:07:48;;;;;;;22.73;13.02;;;;;;;;;;5033311;28;20034;-70
2022/10/15 12:10:30;;;;;;;22.45;14.30;;;;;;;;;;4999244;28;20132;-70
2022/10/15 12:12:56;;;;;;;23.00;13.60;;;;;;;;;;5033220;28;20457;-70
2022/10/15 12:15:41;;;;;;;23.48;14.48;;;;;;;;;;5015596;28;20050;-69
2022/10/15 12:18:07;;;;;;;25.20;12.95;;;;;;;;;;5015458;28;20033;-69
2022/10/15 12:20:33;;;;;;;20.52;12.70;;;;;;;;;;5015650;28;20041;-69
2022/10/15 12:23:00;;;;;;;20.83;12.98;;;;;;;;;;5015333;28;20081;-69
2022/10/15 12:25:35;;;;;;;20.38;12.32;;;;;;;;;;5032975;28;20038;-69
2022/10/15 12:28:10;;;;;;;19.10;13.15;;;;;;;;;;5033327;28;20046;-69
2022/10/15 12:30:36;;;;;;;19.60;12.50;;;;;;;;;;5015583;28;20045;-69
2022/10/15 12:33:04;;;;;;;21.27;13.57;;;;;;;;;;5015328;28;20041;-69
2022/10/15 12:35:35;;;;;;;28.10;14.10;;;;;;;;;;5015329;28;20041;-70
2022/10/15 12:38:10;;;;;;;20.33;12.38;;;;;;;;;;5015379;28;20068;-70
2022/10/15 12:40:38;;;;;;;19.40;13.02;;;15.80;99.90;;;;;;5015327;28;20041;-70
2022/10/15 12:43:15;;;;;;;19.30;12.85;;;;;;;;;;5015259;28;20052;-70
2022/10/15 12:45:49;;;;;;;19.15;12.77;;;;;;;;;;5015268;28;20485;-70
2022/10/15 12:48:15;;;;;;;19.25;13.30;;;;;;;;;;5015032;28;20045;-70
2022/10/15 12:50:42;;;;;;;25.00;14.50;;;;;;;;;;5018962;28;20041;-70
2022/10/15 12:53:31;;;;;;;19.13;12.32;;;;;;;;;;5002976;28;20042;-70
2022/10/15 12:56:10;;;;;;;21.55;13.38;;;;;;;;;;5036814;28;20048;-70
2022/10/15 12:58:38;;;;;;;20.05;13.52;;;15.30;99.90;;;;;;5019106;28;20041;-70
2022/10/15 13:01:13;;;;;;;21.23;13.65;;;;;;;;;;5019394;28;20060;-70
2022/10/15 13:03:42;;;;;;;22.73;14.02;;;;;;;;;;5019080;28;20466;-70
2022/10/15 13:06:21;;;;;;;20.42;13.60;;;;;;;;;;5036609;28;20041;-70
2022/10/15 13:09:09;;;;;;;19.33;13.52;;;15.40;99.90;;;;;;5018652;28;20045;-70
2022/10/15 13:11:35;;;;;;;19.42;13.30;;;;;;;;;;5024148;28;20440;-70
2022/10/15 13:14:20;;;;;;;20.88;13.63;;;;;;;;;;5018941;28;20385;-70
2022/10/15 13:16:47;;;;;;;21.48;13.40;;;;;;;;;;5018590;28;20042;-70
2022/10/15 13:19:17;;;;;;;19.35;12.93;;;;;;;;;;5018777;28;20107;-70
2022/10/15 13:21:51;;;;;;;19.65;12.82;;;;;;;;;;5036257;28;20095;-70
2022/10/15 13:24:18;;;;;;;19.60;13.45;;;;;;;;;;5018378;28;20061;-70
2022/10/15 13:26:44;;;;;;;18.92;12.02;;;;;;;;;;5018445;28;20034;-70
2022/10/15 13:29:14;;;;;;;17.73;11.98;;;;;;;;;;5018450;28;20068;-70
2022/10/15 13:31:43;;;;;;;14.48;9.85;;;;;;;;;;5036178;28;20060;-70
2022/10/15 13:34:09;;;;;;;15.65;10.68;;;;;;;;;;5035922;28;20037;-70
2022/10/15 13:36:36;;;;;;;15.27;10.52;;;;;;;;;;5018142;28;20378;-70
2022/10/15 13:39:06;;;;;;;16.88;10.20;;;;;;;;;;5018065;28;20049;-70
2022/10/15 13:41:41;;;;;;;15.50;10.38;;;;;;;;;;5017987;28;20595;-70
2022/10/15 13:44:19;;;;;;;14.70;10.07;;;;;;;;;;5036023;28;20367;-70
2022/10/15 13:46:45;;;;;;;21.27;10.82;;;;;;;;;;5017936;28;20405;-70
2022/10/15 13:49:12;;;;;;;16.85;10.13;;;14.80;99.90;;;;;;5035863;28;20041;-70
2022/10/15 13:51:48;;;;;;;15.43;10.50;;;;;;;;;;5036072;28;20432;-70
2022/10/15 13:54:17;;;;;;;18.05;11.25;;;;;;;;;;5018122;28;20041;-70
2022/10/15 13:56:44;;;;;;;14.70;10.20;;;;;;;;;;5018105;28;20037;-70
2022/10/15 13:59:19;;;;;;;15.40;10.70;;;;;;;;;;5017804;28;20129;-70
2022/10/15 14:01:47;;;;;;;15.35;10.40;;;;;;;;;;5016673;28;20042;-70
2022/10/15 14:04:15;;;;;;;16.85;10.85;;;;;;;;;;5017796;28;20051;-70
2022/10/15 14:06:42;;;;;;;18.38;11.13;;;;;;;;;;5017583;28;20041;-70
2022/10/15 14:09:19;;;;;;;15.63;9.85;;;;;;;;;;5017725;28;20081;-69
2022/10/15 14:11:45;;;;;;;15.82;9.80;;;;;;;;;;5035547;28;20449;-69
2022/10/15 14:14:34;;;;;;;14.13;9.07;;;14.70;99.90;;;;;;5017900;28;20040;-69
2022/10/15 14:17:02;;;;;;;11.75;7.65;;;;;;;;;;5035317;28;20037;-69
2022/10/15 14:19:28;;;;;;;9.90;6.57;;;;;;;;;;5035397;28;20045;-69
2022/10/15 14:21:58;;;;;;;13.93;6.72;;;;;;;;;;5035306;28;20048;-69
2022/10/15 14:24:30;;;;;;;10.70;7.72;;;;;;;;;;5001242;28;20084;-69
2022/10/15 14:27:01;;;;;;;13.00;7.70;;;;;;;;;;5017475;28;20033;-69